Time;durP1;ratioP1;P1;durP2;ratioP2;P2;SDS_P1;SDS_P2;PMS_P1;PMS_P2;Temp;Humidity;BMP_temperature;BMP_pressure;BME280_temperature;BME280_humidity;BME280_pressure;Samples;Min_cycle;Max_cycle;Signal;HPM_P1;HPM_P2
2021/04/21 00:01:23;;;;;;;59.70;34.03;;;;;;;9.97;55.98;95074.84;5074092;28;20452;-64
2021/04/21 00:03:53;;;;;;;55.40;35.23;;;;;;;9.66;57.28;95069.53;5087078;28;20540;-64
2021/04/21 00:06:20;;;;;;;61.33;36.30;;;;;;;9.84;56.67;95066.59;5081664;28;20440;-67
2021/04/21 00:08:48;;;;;;;52.63;34.77;;;;;;;9.79;57.00;95066.53;5079961;28;20472;-64
2021/04/21 00:11:17;;;;;;;57.80;37.00;;;;;;;9.69;57.23;95069.06;5081791;28;20504;-66
2021/04/21 00:13:45;;;;;;;64.00;39.17;;;;;;;9.67;57.58;95071.91;5087121;28;21047;-64
2021/04/21 00:16:13;;;;;;;59.03;37.90;;;;;;;9.78;56.68;95072.81;5082363;28;20900;-65
2021/04/21 00:18:44;;;;;;;62.20;36.53;;;;;;;9.89;56.01;95070.03;5079266;28;20500;-64
2021/04/21 00:21:12;;;;;;;53.77;34.50;;;;;;;9.73;56.18;95075.38;5082031;28;20817;-65
2021/04/21 00:23:41;;;;;;;58.50;37.27;;;;;;;9.73;56.99;95070.13;5086646;28;20991;-68
2021/04/21 00:26:14;;;;;;;65.43;36.47;;;;;;;9.59;56.96;95068.94;5081241;28;20452;-67
2021/04/21 00:28:41;;;;;;;55.07;35.57;;;;;;;9.69;56.46;95074.28;5079813;28;20525;-64
2021/04/21 00:31:11;;;;;;;50.97;34.80;;;;;;;9.91;56.56;95072.41;5081504;28;20441;-63
2021/04/21 00:33:38;;;;;;;56.40;34.50;;;;;;;9.83;56.41;95072.88;5086704;28;20480;-67
2021/04/21 00:36:09;;;;;;;55.57;34.10;;;;;;;10.09;55.95;95074.75;5081488;28;20437;-66
2021/04/21 00:38:38;;;;;;;47.87;31.63;;;;;;;10.07;55.46;95071.56;5078884;28;21036;-66
2021/04/21 00:41:16;;;;;;;45.03;29.67;;;;;;;10.04;55.88;95066.78;5081288;28;20766;-64
2021/04/21 00:43:53;;;;;;;32.20;22.20;;;;;;;10.10;54.96;95076.31;5086151;28;20463;-64
2021/04/21 00:46:23;;;;;;;32.73;23.60;;;;;;;9.94;55.80;95072.75;5072468;28;20919;-63
2021/04/21 00:49:34;;;;;;;36.03;23.63;;;;;;;9.89;55.93;95071.91;5080287;28;20449;-65
2021/04/21 00:52:06;;;;;;;32.20;21.23;;;;;;;9.46;56.09;95064.06;5083813;28;20866;-62
2021/04/21 00:54:47;;;;;;;32.50;21.60;;;;;;;9.80;55.47;95075.97;5079518;28;20527;-65
2021/04/21 00:57:28;;;;;;;33.77;23.43;;;;;;;9.77;56.32;95068.59;5085086;28;20475;-63
2021/04/21 01:00:20;;;;;;;28.77;20.97;;;;;;;9.93;55.70;95059.88;5074726;28;20481;-66
2021/04/21 01:03:13;;;;;;;30.30;20.73;;;;;;;9.61;56.14;95067.66;5049970;28;20998;-65
2021/04/21 01:05:45;;;;;;;29.40;20.83;;;;;;;9.82;56.30;95074.69;5079036;28;20445;-63
2021/04/21 01:08:16;;;;;;;30.47;19.30;;;;;;;9.75;56.56;95057.59;5080320;28;20574;-66
2021/04/21 01:10:58;;;;;;;26.57;18.17;;;;;;;9.81;56.37;95067.09;5083335;28;20469;-65
2021/04/21 01:13:31;;;;;;;27.90;19.23;;;;;;;9.83;55.50;95070.25;5085639;28;20573;-65
2021/04/21 01:15:58;;;;;;;29.00;19.63;;;;;;;9.92;55.97;95066.16;5079314;28;21039;-66
2021/04/21 01:18:28;;;;;;;27.07;18.70;;;;;;;9.76;56.24;95069.66;5078201;28;20817;-65
2021/04/21 01:21:05;;;;;;;26.00;17.97;;;;;;;10.07;55.76;95058.47;5081163;28;20501;-66
2021/04/21 01:23:41;;;;;;;27.10;19.17;;;;;;;10.17;55.26;95063.81;5085902;28;20612;-65
2021/04/21 01:26:44;;;;;;;26.40;18.40;;;;;;;10.15;55.96;95073.72;5080746;28;20480;-62
2021/04/21 01:29:15;;;;;;;22.50;17.23;;;;;;;9.99;55.54;95049.22;5078405;28;20507;-64
2021/04/21 01:31:42;;;;;;;24.80;18.30;;;;;;;10.06;56.16;95069.97;5083575;28;20897;-65
2021/04/21 01:34:13;;;;;;;27.83;20.23;;;;;;;10.18;55.52;95062.78;5084192;28;20502;-66
2021/04/21 01:36:42;;;;;;;26.13;19.63;;;;;;;10.17;55.78;95074.28;5080985;28;20514;-64
2021/04/21 01:39:10;;;;;;;26.73;19.43;;;;;;;10.14;56.39;95072.16;5078910;28;21001;-65
2021/04/21 01:41:40;;;;;;;27.37;19.90;;;;;;;10.02;56.66;95071.47;5078576;28;20441;-64
2021/04/21 01:44:17;;;;;;;32.23;21.23;;;;;;;9.65;57.54;95067.97;5077153;28;20907;-64
2021/04/21 01:46:49;;;;;;;33.67;21.37;;;;;;;9.50;57.15;95065.16;5081253;28;20453;-65
2021/04/21 01:49:21;;;;;;;33.17;21.83;;;;;;;9.40;58.19;95068.44;5079068;28;20495;-63
2021/04/21 01:51:54;;;;;;;34.83;23.27;;;;;;;9.37;58.89;95076.00;5084296;28;20482;-66
2021/04/21 01:54:26;;;;;;;37.20;23.53;;;;;;;9.33;58.31;95073.06;5082251;28;20454;-64
2021/04/21 01:56:58;;;;;;;41.03;26.07;;;;;;;9.09;59.17;95075.13;5081746;28;21180;-65
2021/04/21 01:59:48;;;;;;;45.13;28.43;;;;;;;9.13;59.12;95076.22;5074796;28;20942;-65
2021/04/21 02:02:23;;;;;;;52.40;31.83;;;;;;;9.11;59.43;95083.50;5087868;28;20453;-64
2021/04/21 02:05:24;;;;;;;53.30;31.67;;;;;;;9.18;59.18;95084.13;5077242;28;20570;-65
2021/04/21 02:07:55;;;;;;;49.90;30.70;;;;;;;9.27;59.29;95071.41;5066096;28;20552;-65
2021/04/21 02:10:49;;;;;;;54.73;32.43;;;;;;;9.33;58.50;95069.66;5077655;28;20572;-65
2021/04/21 02:13:39;;;;;;;51.97;30.50;;;;;;;9.06;59.10;95073.00;5086373;28;20446;-66
2021/04/21 02:16:27;;;;;;;45.70;29.40;;;;;;;9.06;59.65;95091.28;5076349;28;20473;-66
2021/04/21 02:19:05;;;;;;;41.17;25.00;;;;;;;8.51;60.47;95087.84;5078674;28;20453;-66
2021/04/21 02:21:51;;;;;;;34.15;23.42;;;;;;;8.54;61.18;95081.38;5074696;28;20505;-64
2021/04/21 02:25:01;;;;;;;33.27;22.17;;;;;;;8.39;61.75;95092.38;5082658;28;20196;-65
2021/04/21 02:27:45;;;;;;;33.22;22.38;;;;;;;8.64;60.69;95092.75;5063147;28;20540;-67
2021/04/21 02:30:49;;;;;;;37.15;25.13;;;;;;;8.74;60.44;95090.28;5077271;28;20226;-67
2021/04/21 02:33:32;;;;;;;39.40;25.57;;;;;;;8.77;60.46;95092.44;5091422;28;20206;-63
2021/04/21 02:36:03;;;;;;;44.40;27.43;;;;;;;8.85;60.12;95078.97;5079006;28;20445;-65
2021/04/21 02:38:37;;;;;;;44.70;27.70;;;;;;;8.93;61.01;95096.84;5079865;28;20536;-63
2021/04/21 02:41:13;;;;;;;42.13;27.10;;;;;;;9.11;60.16;95104.44;5083955;28;20480;-66
2021/04/21 02:43:59;;;;;;;41.73;25.37;;;;;;;8.98;60.16;95099.53;5088737;28;20445;-66
2021/04/21 02:46:53;;;;;;;43.73;26.63;;;;;;;8.62;61.32;95100.03;5078416;28;20547;-66
2021/04/21 02:49:41;;;;;;;40.83;25.47;;;;;;;8.64;61.41;95105.81;5079848;28;20454;-65
2021/04/21 02:52:17;;;;;;;37.07;25.43;;;;;;;8.67;61.56;95115.00;5094291;28;20441;-66
2021/04/21 02:55:07;;;;;;;45.27;26.33;;;;;;;8.67;61.33;95102.72;5086841;28;20457;-65
2021/04/21 02:57:54;;;;;;;37.47;25.80;;;;;;;8.68;61.73;95106.94;5086011;28;20966;-66
2021/04/21 03:00:55;;;;;;;37.70;23.87;;;;;;;8.84;61.01;95105.34;5080510;28;20495;-66
2021/04/21 03:03:36;;;;;;;37.63;23.03;;;;;;;8.79;60.67;95100.84;5087419;28;20559;-65
2021/04/21 03:06:11;;;;;;;36.07;23.00;;;;;;;8.75;61.10;95106.75;5078910;28;20462;-64
2021/04/21 03:09:09;;;;;;;31.00;21.63;;;;;;;8.88;61.23;95098.59;5079758;28;20502;-68
2021/04/21 03:11:36;;;;;;;32.80;21.93;;;;;;;8.96;60.38;95101.59;5077020;28;20989;-65
2021/04/21 03:14:13;;;;;;;29.80;19.27;;;;;;;8.98;60.55;95094.31;5087812;28;20536;-66
2021/04/21 03:16:43;;;;;;;22.77;16.73;;;;;;;8.82;60.57;95096.94;5083917;28;20444;-66
2021/04/21 03:19:12;;;;;;;21.20;15.03;;;;;;;8.94;60.63;95101.03;5081107;28;21042;-66
2021/04/21 03:21:47;;;;;;;19.77;13.17;;;;;;;8.87;60.62;95107.47;5085682;28;20451;-65
2021/04/21 03:24:17;;;;;;;18.53;14.10;;;;;;;9.25;59.73;95109.31;5085803;28;20445;-67
2021/04/21 03:26:50;;;;;;;18.80;14.00;;;;;;;9.47;59.00;95110.91;5083289;28;20454;-66
2021/04/21 03:29:39;;;;;;;28.57;17.13;;;;;;;9.23;59.79;95106.16;5080930;28;20453;-65
2021/04/21 03:32:13;;;;;;;23.43;16.17;;;;;;;9.34;59.16;95105.25;5082266;28;20453;-65
2021/04/21 03:34:42;;;;;;;24.87;15.43;;;;;;;9.40;59.46;95107.69;5077111;28;21032;-66
2021/04/21 03:37:24;;;;;;;21.83;14.70;;;;;;;9.28;59.75;95108.81;5085942;28;20655;-65
2021/04/21 03:39:51;;;;;;;17.47;12.60;;;;;;;9.28;60.12;95119.28;5072573;28;20477;-65
2021/04/21 03:42:17;;;;;;;18.53;12.53;;;;;;;9.37;59.38;95115.22;5089823;28;20445;-66
2021/04/21 03:44:44;;;;;;;18.83;12.77;;;;;;;9.23;59.98;95118.19;5081065;28;20458;-66
2021/04/21 03:47:11;;;;;;;17.83;13.00;;;;;;;9.25;60.20;95125.00;5085724;28;20561;-65
2021/04/21 03:49:38;;;;;;;21.80;12.70;;;;;;;9.23;60.31;95129.69;5078190;28;20457;-66
2021/04/21 03:52:06;;;;;;;19.03;13.57;;;;;;;9.25;60.00;95130.22;5088382;28;20453;-65
2021/04/21 03:54:34;;;;;;;18.70;12.90;;;;;;;9.28;59.77;95124.50;5081933;28;20575;-65
2021/04/21 03:57:03;;;;;;;22.93;14.67;;;;;;;9.35;59.60;95130.34;5084585;28;20446;-64
2021/04/21 03:59:32;;;;;;;23.47;13.97;;;;;;;9.34;60.10;95134.00;5081023;28;20498;-65
2021/04/21 04:02:03;;;;;;;19.03;12.73;;;;;;;9.37;60.51;95133.53;5078530;28;20551;-65
2021/04/21 04:04:35;;;;;;;24.73;14.13;;;;;;;9.27;60.66;95133.41;5082621;28;20450;-65
2021/04/21 04:07:07;;;;;;;27.80;17.70;;;;;;;9.28;60.84;95108.81;5073116;28;20450;-65
2021/04/21 04:09:35;;;;;;;41.47;26.53;;;;;;;9.45;60.16;95136.50;5070688;28;20549;-66
2021/04/21 04:12:05;;;;;;;41.80;26.07;;;;;;;9.42;59.61;95136.19;5072062;28;20467;-65
2021/04/21 04:14:35;;;;;;;34.87;23.23;;;;;;;9.57;59.60;95141.63;5079375;28;20449;-66
2021/04/21 04:17:03;;;;;;;33.60;23.23;;;;;;;9.56;59.34;95148.69;5091654;28;20830;-66
2021/04/21 04:19:36;;;;;;;40.60;23.43;;;;;;;9.49;60.36;95139.44;5084843;28;20470;-66
2021/04/21 04:22:02;;;;;;;36.87;22.17;;;;;;;9.48;60.06;95148.31;5070439;28;20445;-66
2021/04/21 04:24:35;;;;;;;34.63;22.73;;;;;;;9.47;59.82;95144.13;5070442;28;20449;-64
2021/04/21 04:27:05;;;;;;;34.83;22.47;;;;;;;9.60;60.37;95154.25;5085890;28;20780;-65
2021/04/21 04:29:31;;;;;;;28.40;20.63;;;;;;;9.59;59.96;95147.41;5090763;28;20445;-65
2021/04/21 04:32:02;;;;;;;31.73;20.43;;;;;;;9.78;59.70;95151.31;5090985;28;20449;-65
2021/04/21 04:34:33;;;;;;;34.10;21.93;;;;;;;9.77;60.36;95157.59;5090528;28;21010;-64
2021/04/21 04:36:59;;;;;;;42.47;22.30;;;;;;;9.62;59.86;95157.38;5090015;28;20823;-65
2021/04/21 04:39:27;;;;;;;33.43;21.77;;;;;;;9.59;59.46;95157.88;5087921;28;20469;-65
2021/04/21 04:41:54;;;;;;;31.37;22.20;;;;;;;9.71;59.26;95176.84;5070263;28;20434;-65
2021/04/21 04:44:21;;;;;;;36.23;24.60;;;;;;;9.44;59.24;95173.38;5070245;28;20445;-66
2021/04/21 04:46:52;;;;;;;38.07;25.60;;;;;;;9.59;59.87;95173.56;5071545;28;20533;-65
2021/04/21 04:49:22;;;;;;;39.80;22.33;;;;;;;9.60;59.43;95185.63;5066471;28;20446;-67
2021/04/21 04:51:52;;;;;;;37.83;22.37;;;;;;;9.56;58.91;95184.53;5077448;28;20453;-64
2021/04/21 04:54:20;;;;;;;32.73;20.60;;;;;;;9.65;60.32;95189.09;5089138;28;20552;-66
2021/04/21 04:56:47;;;;;;;71.03;51.43;;;;;;;9.78;59.88;95190.59;5091561;28;20441;-67
2021/04/21 04:59:14;;;;;;;58.40;40.17;;;;;;;9.78;60.34;95187.97;5094888;28;20437;-63
2021/04/21 05:01:49;;;;;;;29.23;20.63;;;;;;;9.97;61.25;95191.84;5094948;28;20476;-65
2021/04/21 05:04:20;;;;;;;27.60;19.53;;;;;;;10.04;60.06;95192.44;5094858;28;20451;-64
2021/04/21 05:06:51;;;;;;;29.63;19.40;;;;;;;10.07;59.53;95194.59;5095627;28;20473;-66
2021/04/21 05:09:20;;;;;;;30.50;19.43;;;;;;;10.02;58.62;95186.66;5093587;28;20480;-66
2021/04/21 05:11:48;;;;;;;27.60;18.73;;;;;;;10.11;58.78;95201.75;5091013;28;20451;-66
2021/04/21 05:14:20;;;;;;;27.23;18.67;;;;;;;10.07;58.85;95199.84;5090143;28;20456;-66
2021/04/21 05:17:26;;;;;;;34.17;23.77;;;;;;;10.13;59.16;95176.09;5090527;28;20433;-68
2021/04/21 05:20:18;;;;;;;26.03;17.83;;;;;;;10.35;58.81;95204.06;5089920;28;20477;-65
2021/04/21 05:23:09;;;;;;;26.93;19.13;;;;;;;10.37;58.44;95208.03;5090843;28;20524;-65
2021/04/21 05:26:06;;;;;;;26.23;17.60;;;;;;;10.41;58.72;95206.53;5089803;28;20512;-70
2021/04/21 05:28:38;;;;;;;26.27;16.47;;;;;;;10.46;58.47;95211.81;5090065;28;20448;-68
2021/04/21 05:31:41;;;;;;;20.97;16.73;;;;;;;10.20;58.00;95208.13;5090066;28;20451;-67
2021/04/21 05:34:45;;;;;;;22.43;17.57;;;;;;;10.20;57.95;95212.56;5089058;28;20440;-68
2021/04/21 05:37:48;;;;;;;25.97;17.60;;;;;;;10.38;58.06;95212.28;5089030;28;20476;-68
2021/04/21 05:40:39;;;;;;;26.10;16.57;;;;;;;10.45;57.08;95215.47;5089324;28;20534;-69
2021/04/21 05:43:39;;;;;;;23.73;16.17;;;;;;;10.26;57.97;95216.84;5089164;28;20445;-69
2021/04/21 05:46:16;;;;;;;27.90;16.80;;;;;;;9.77;58.15;95217.75;5089780;28;20435;-67
2021/04/21 05:49:25;;;;;;;23.87;16.80;;;;;;;9.98;57.71;95219.63;5089545;28;20433;-67
2021/04/21 05:52:12;;;;;;;22.97;16.37;;;;;;;10.22;57.32;95214.97;5086964;28;20464;-68
2021/04/21 05:55:15;;;;;;;32.33;18.57;;;;;;;10.50;58.85;95217.34;5089537;28;20468;-68
2021/04/21 05:58:02;;;;;;;26.53;17.27;;;;;;;10.19;58.48;95219.66;5089336;28;20448;-67
2021/04/21 06:00:56;;;;;;;29.20;18.57;;;;;;;10.19;58.47;95226.72;5089587;28;20536;-67
2021/04/21 06:03:23;;;;;;;25.27;18.37;;;;;;;9.80;59.25;95225.13;5089119;28;20433;-68
2021/04/21 06:05:49;;;;;;;26.90;19.43;;;;;;;10.23;58.44;95227.81;5092025;28;20444;-67
2021/04/21 06:08:16;;;;;;;27.77;19.50;;;;;;;10.45;59.20;95228.59;5093091;28;20441;-66
2021/04/21 06:10:43;;;;;;;31.33;17.80;;;;;;;10.61;57.83;95229.50;5093040;28;20465;-65
2021/04/21 06:13:11;;;;;;;28.70;18.17;;;;;;;10.88;58.13;95228.47;5093099;28;20445;-68
2021/04/21 06:15:39;;;;;;;24.40;16.30;;;;;;;11.02;58.14;95234.88;5093755;28;20437;-65
2021/04/21 06:18:08;;;;;;;25.97;16.13;;;;;;;11.08;57.68;95226.03;5092929;28;20439;-65
2021/04/21 06:20:39;;;;;;;22.47;14.73;;;;;;;11.21;57.14;95241.34;5093011;28;20487;-67
2021/04/21 06:23:17;;;;;;;21.53;13.83;;;;;;;11.23;56.39;95244.50;5092967;28;20529;-67
2021/04/21 06:25:47;;;;;;;22.20;13.57;;;;;;;11.37;55.90;95241.47;5093246;28;20448;-68
2021/04/21 06:28:14;;;;;;;21.63;12.67;;;;;;;11.34;55.56;95240.13;5093360;28;20451;-66
2021/04/21 06:30:43;;;;;;;35.60;23.93;;;;;;;11.30;56.09;95239.03;5093951;28;20437;-67
2021/04/21 06:33:09;;;;;;;37.67;26.67;;;;;;;11.15;57.67;95241.53;5092912;28;20444;-67
2021/04/21 06:35:38;;;;;;;33.60;22.20;;;;;;;11.24;57.39;95235.59;5092914;28;20954;-68
2021/04/21 06:38:06;;;;;;;34.57;23.10;;;;;;;11.35;57.68;95238.31;5092644;28;20448;-67
2021/04/21 06:40:34;;;;;;;31.33;19.97;;;;;;;11.47;56.63;95244.16;5092907;28;20555;-68
2021/04/21 06:43:01;;;;;;;28.07;18.47;;;;;;;11.50;56.05;95239.19;5093307;28;20433;-65
2021/04/21 06:45:33;;;;;;;31.93;18.90;;;;;;;11.63;56.29;95237.97;5092849;28;20497;-68
2021/04/21 06:48:03;;;;;;;25.27;17.70;;;;;;;11.75;55.92;95241.22;5092790;28;20988;-69
2021/04/21 06:50:34;;;;;;;27.23;15.53;;;;;;;12.07;55.05;95244.56;5092834;28;20445;-67
2021/04/21 06:53:07;;;;;;;20.20;14.10;;;;;;;11.82;54.25;95236.53;5092451;28;20532;-67
2021/04/21 06:55:35;;;;;;;25.50;14.90;;;;;;;12.02;54.57;95236.66;5092999;28;20445;-67
2021/04/21 06:58:15;;;;;;;22.20;15.23;;;;;;;12.04;54.25;95245.06;5092759;28;20800;-68
2021/04/21 07:00:42;;;;;;;21.37;14.33;;;;;;;12.03;53.69;95244.28;5092456;28;20480;-67
2021/04/21 07:03:14;;;;;;;18.13;14.17;;;;;;;12.05;53.98;95239.56;5091732;28;20448;-67
2021/04/21 07:05:42;;;;;;;17.90;13.07;;;;;;;12.16;53.82;95243.00;5092536;28;20439;-69
2021/04/21 07:08:10;;;;;;;18.83;13.93;;;;;;;12.18;53.58;95240.91;5091846;28;20453;-68
2021/04/21 07:10:43;;;;;;;22.70;13.30;;;;;;;12.27;52.92;95254.34;5090980;28;20917;-69
2021/04/21 07:13:19;;;;;;;15.43;11.90;;;;;;;12.22;52.87;95249.88;5091709;28;20437;-69
2021/04/21 07:15:48;;;;;;;19.27;12.57;;;;;;;12.26;53.30;95240.44;5092081;28;20451;-67
2021/04/21 07:18:17;;;;;;;20.97;12.97;;;;;;;12.39;52.90;95253.09;5090943;28;20651;-67
2021/04/21 07:20:44;;;;;;;19.50;12.63;;;;;;;12.33;52.15;95248.88;5092415;28;20875;-68
2021/04/21 07:23:13;;;;;;;20.67;12.10;;;;;;;12.44;53.51;95250.50;5091340;28;20524;-67
2021/04/21 07:25:46;;;;;;;17.87;12.57;;;;;;;12.72;53.23;95250.03;5092758;28;20448;-69
2021/04/21 07:28:14;;;;;;;16.80;12.00;;;;;;;12.79;52.06;95244.53;5092089;28;20460;-67
2021/04/21 07:30:40;;;;;;;19.47;10.90;;;;;;;12.93;52.26;95243.78;5092197;28;20422;-68
2021/04/21 07:33:08;;;;;;;18.23;11.67;;;;;;;13.10;51.54;95244.34;5091482;28;20433;-68
2021/04/21 07:35:35;;;;;;;16.80;11.40;;;;;;;13.30;50.33;95248.03;5090602;28;20986;-69
2021/04/21 07:38:03;;;;;;;22.13;11.73;;;;;;;13.43;50.48;95248.28;5091154;28;20494;-70
2021/04/21 07:40:37;;;;;;;18.20;10.87;;;;;;;13.75;49.94;95240.09;5092363;28;20488;-67
2021/04/21 07:43:15;;;;;;;12.23;9.83;;;;;;;13.81;48.85;95244.31;5090939;28;20445;-68
2021/04/21 07:45:54;;;;;;;12.23;8.70;;;;;;;14.10;48.50;95235.53;5091328;28;21061;-67
2021/04/21 07:48:33;;;;;;;11.20;7.83;;;;;;;13.89;46.14;95233.22;5091373;28;20524;-68
2021/04/21 07:51:15;;;;;;;11.73;7.30;;;;;;;13.86;46.19;95241.66;5091790;28;20526;-67
2021/04/21 07:53:45;;;;;;;15.70;7.37;;;;;;;13.64;45.10;95243.81;5091082;28;20789;-67
2021/04/21 07:56:13;;;;;;;11.70;6.93;;;;;;;14.14;46.15;95238.44;5091591;28;20547;-68
2021/04/21 07:58:40;;;;;;;10.63;6.33;;;;;;;14.33;44.56;95231.53;5091206;28;20418;-68
2021/04/21 08:01:07;;;;;;;7.87;6.60;;;;;;;14.53;44.52;95231.44;5091197;28;20522;-69
2021/04/21 08:03:35;;;;;;;9.53;6.83;;;;;;;14.60;44.86;95231.91;5090671;28;20490;-67
2021/04/21 08:06:03;;;;;;;13.10;7.97;;;;;;;14.44;44.90;95232.25;5091479;28;20842;-67
2021/04/21 08:08:32;;;;;;;16.13;9.53;;;;;;;14.32;45.70;95239.72;5090859;28;20441;-68
2021/04/21 08:11:01;;;;;;;12.13;7.57;;;;;;;14.17;43.91;95237.88;5091502;28;20484;-66
2021/04/21 08:13:44;;;;;;;12.03;9.07;;;;;;;14.07;44.56;95243.19;5091047;28;20429;-69
2021/04/21 08:16:30;;;;;;;12.30;6.97;;;;;;;14.11;44.40;95244.22;5091075;28;20444;-70
2021/04/21 08:18:58;;;;;;;12.33;6.73;;;;;;;14.21;44.21;95244.97;5090573;28;20444;-67
2021/04/21 08:21:47;;;;;;;10.87;6.70;;;;;;;14.24;43.08;95235.75;5090643;28;21104;-68
2021/04/21 08:24:20;;;;;;;9.63;6.40;;;;;;;14.06;42.70;95238.97;5090931;28;20449;-69
2021/04/21 08:26:49;;;;;;;9.27;6.77;;;;;;;14.29;42.23;95246.31;5090386;28;20437;-67
2021/04/21 08:29:16;;;;;;;8.30;6.10;;;;;;;14.54;42.61;95233.03;5090948;28;20471;-67
2021/04/21 08:31:46;;;;;;;9.70;6.73;;;;;;;15.10;43.51;95233.47;5090460;28;20973;-67
2021/04/21 08:34:13;;;;;;;9.47;6.53;;;;;;;14.89;40.73;95239.97;5090540;28;20445;-66
2021/04/21 08:36:39;;;;;;;9.73;6.70;;;;;;;15.04;43.07;95239.84;5090187;28;20445;-66
2021/04/21 08:39:08;;;;;;;13.63;6.47;;;;;;;15.29;41.15;95233.59;5090557;28;20437;-69
2021/04/21 08:41:40;;;;;;;8.03;6.27;;;;;;;15.17;39.93;95229.47;5090007;28;20480;-66
2021/04/21 08:44:08;;;;;;;7.27;6.13;;;;;;;15.19;40.80;95229.97;5090708;28;20823;-67
2021/04/21 08:46:34;;;;;;;9.97;6.03;;;;;;;15.22;41.07;95224.13;5090270;28;20437;-71
2021/04/21 08:49:02;;;;;;;8.77;5.13;;;;;;;15.22;39.31;95224.13;5090412;28;20441;-69
2021/04/21 08:51:30;;;;;;;6.83;5.40;;;;;;;14.87;38.91;95232.28;5090404;28;20436;-69
2021/04/21 08:54:12;;;;;;;5.70;5.03;;;;;;;15.12;39.46;95224.22;5090015;28;20436;-66
2021/04/21 08:56:42;;;;;;;7.17;4.47;;;;;;;14.93;37.10;95220.66;5090123;28;20531;-69
2021/04/21 08:59:11;;;;;;;7.27;4.03;;;;;;;14.82;35.74;95213.88;5090631;28;20433;-69
2021/04/21 09:01:38;;;;;;;5.60;3.77;;;;;;;14.95;34.59;95218.53;5089821;28;20513;-72
2021/04/21 09:04:04;;;;;;;4.57;3.60;;;;;;;15.36;36.50;95218.22;5090072;28;20474;-67
2021/04/21 09:06:31;;;;;;;5.27;4.03;;;;;;;15.61;35.65;95207.47;5090361;28;20440;-70
2021/04/21 09:08:59;;;;;;;5.97;4.67;;;;;;;15.52;36.39;95217.84;5089863;28;20959;-72
2021/04/21 09:11:25;;;;;;;5.07;4.53;;;;;;;15.12;35.73;95211.03;5090573;28;20445;-70
2021/04/21 09:13:52;;;;;;;5.33;4.50;;;;;;;15.40;36.26;95203.41;5089737;28;20441;-68
2021/04/21 09:16:19;;;;;;;4.50;4.10;;;;;;;15.80;36.98;95197.78;5090562;28;20437;-69
2021/04/21 09:18:46;;;;;;;6.23;4.10;;;;;;;15.94;36.87;95194.19;5089462;28;20464;-67
2021/04/21 09:21:19;;;;;;;8.10;4.40;;;;;;;16.16;36.73;95191.03;5089908;28;20576;-66
2021/04/21 09:23:47;;;;;;;5.17;3.93;;;;;;;16.35;33.94;95194.47;5089570;28;20442;-66
2021/04/21 09:26:24;;;;;;;4.47;3.20;;;;;;;15.65;33.26;95192.63;5090028;28;20449;-67
2021/04/21 09:28:54;;;;;;;4.43;3.80;;;;;;;14.14;35.61;95191.00;5090516;28;20436;-67
2021/04/21 09:31:28;;;;;;;5.80;3.90;;;;;;;15.40;34.99;95193.63;5090437;28;20441;-66
2021/04/21 09:34:08;;;;;;;5.93;4.00;;;;;;;15.87;34.48;95190.31;5089943;28;21019;-68
2021/04/21 09:36:39;;;;;;;13.20;4.43;;;;;;;16.24;35.49;95182.44;5089436;28;21046;-68
2021/04/21 09:39:19;;;;;;;5.90;3.80;;;;;;;16.27;35.05;95183.75;5090667;28;20453;-66
2021/04/21 09:41:50;;;;;;;4.53;3.43;;;;;;;16.26;34.02;95201.47;5095748;28;20591;-66
2021/04/21 09:44:24;;;;;;;5.93;3.80;;;;;;;15.46;34.01;95197.03;5096153;28;20447;-68
2021/04/21 09:46:51;;;;;;;6.33;3.63;;;;;;;15.15;33.64;95202.56;5096277;28;20527;-68
2021/04/21 09:49:31;;;;;;;4.27;3.53;;;;;;;15.03;33.78;95188.94;5096529;28;20437;-66
2021/04/21 09:52:22;;;;;;;3.67;3.37;;;;;;;15.25;33.85;95202.47;5096048;28;20422;-70
2021/04/21 09:54:51;;;;;;;5.07;3.50;;;;;;;15.27;34.58;95205.63;5096136;28;20868;-68
2021/04/21 09:57:27;;;;;;;8.30;4.10;;;;;;;15.31;35.50;95207.72;5094302;28;20441;-68
2021/04/21 10:00:07;;;;;;;5.07;4.43;;;;;;;14.94;36.11;95200.34;5096733;28;20452;-69
2021/04/21 10:02:35;;;;;;;6.10;3.43;;;;;;;14.63;37.77;95236.69;5096066;28;20428;-65
2021/04/21 10:05:27;;;;;;;3.47;3.17;;;;;;;13.84;39.60;95235.88;5078505;28;20441;-68
2021/04/21 10:08:24;;;;;;;5.63;3.43;;;;;;;14.39;40.69;95238.38;5095573;28;20532;-68
2021/04/21 10:11:05;;;;;;;4.27;3.00;;;;;;;14.29;39.59;95243.66;5095942;28;20465;-69
2021/04/21 10:13:58;;;;;;;5.97;3.10;;;;;;;14.16;40.30;95237.09;5095773;28;20445;-69
2021/04/21 10:16:25;;;;;;;4.50;3.07;;;;;;;14.34;41.53;95233.13;5096168;28;20970;-67
2021/04/21 10:18:52;;;;;;;5.33;2.63;;;;;;;13.91;42.23;95236.38;5096054;28;20439;-67
2021/04/21 10:21:20;;;;;;;1.90;1.70;;;;;;;13.17;44.04;95234.34;5096041;28;20485;-67
2021/04/21 10:23:48;;;;;;;6.67;2.70;;;;;;;13.17;45.94;95239.59;5095690;28;20993;-66
2021/04/21 10:26:17;;;;;;;2.83;2.43;;;;;;;13.40;48.77;95227.75;5094552;28;20556;-68
2021/04/21 10:28:45;;;;;;;4.10;2.50;;;;;;;13.02;46.65;95226.47;5095571;28;20807;-69
2021/04/21 10:31:17;;;;;;;3.43;2.50;;;;;;;13.40;48.98;95230.41;5095757;28;20519;-69
2021/04/21 10:33:44;;;;;;;2.90;2.60;;;;;;;13.85;46.63;95230.31;5095214;28;20988;-69
2021/04/21 10:36:11;;;;;;;2.80;2.27;;;;;;;14.56;44.09;95230.88;5095877;28;20429;-67
2021/04/21 10:38:43;;;;;;;3.00;2.60;;;;;;;15.11;44.03;95220.00;5095353;28;20986;-69
2021/04/21 10:41:27;;;;;;;3.73;2.80;;;;;;;15.68;42.46;95221.13;5095845;28;20468;-68
2021/04/21 10:44:23;;;;;;;3.63;3.20;;;;;;;16.19;42.26;95216.88;5095149;28;20436;-70
2021/04/21 10:46:56;;;;;;;5.30;3.13;;;;;;;16.44;38.57;95203.34;5095613;28;20472;-65
2021/04/21 10:49:42;;;;;;;3.80;2.60;;;;;;;17.19;37.96;95194.38;5095976;28;20502;-70
2021/04/21 10:52:29;;;;;;;6.60;2.60;;;;;;;17.50;35.79;95209.81;5093129;28;20514;-68
2021/04/21 10:54:55;;;;;;;3.20;1.90;;;;;;;17.98;34.37;95192.50;5091885;28;20464;-68
2021/04/21 10:57:21;;;;;;;2.67;1.60;;;;;;;17.64;33.59;95205.34;5092415;28;20432;-68
2021/04/21 11:00:10;;;;;;;2.33;1.40;;;;;;;16.31;33.47;95212.00;5092586;28;20536;-68
2021/04/21 11:02:39;;;;;;;1.77;1.67;;;;;;;16.32;35.09;95195.06;5092587;28;20445;-68
2021/04/21 11:05:09;;;;;;;4.60;2.10;;;;;;;16.15;36.07;95210.59;5093342;28;20453;-68
2021/04/21 11:07:37;;;;;;;5.00;2.20;;;;;;;16.25;36.50;95210.47;5092130;28;20713;-69
2021/04/21 11:10:38;;;;;;;1.73;1.57;;;;;;;15.33;36.76;95208.22;5091936;28;20457;-68
2021/04/21 11:13:06;;;;;;;6.07;2.43;;;;;;;16.13;36.11;95207.44;5092068;28;20446;-66
2021/04/21 11:15:41;;;;;;;2.07;1.87;;;;;;;15.34;37.39;95220.34;5092441;28;20445;-67
2021/04/21 11:18:11;;;;;;;2.13;1.93;;;;;;;14.79;38.14;95213.63;5092291;28;20432;-67
2021/04/21 11:20:46;;;;;;;2.43;2.00;;;;;;;14.97;38.16;95223.53;5091717;28;20487;-67
2021/04/21 11:24:00;;;;;;;5.97;2.10;;;;;;;14.35;38.76;95224.13;5091555;28;20858;-67
2021/04/21 11:26:27;;;;;;;2.73;1.67;;;;;;;13.41;40.92;95229.31;5092180;28;20895;-66
2021/04/21 11:28:55;;;;;;;2.47;2.27;;;;;;;13.68;41.34;95223.78;5091404;28;20421;-66
2021/04/21 11:31:43;;;;;;;4.67;2.20;;;;;;;13.99;40.12;95217.41;5092254;28;20449;-68
2021/04/21 11:34:13;;;;;;;2.07;1.80;;;;;;;14.11;38.47;95217.88;5091850;28;20437;-65
2021/04/21 11:37:05;;;;;;;2.73;1.90;;;;;;;14.15;37.39;95218.91;5091496;28;20544;-65
2021/04/21 11:39:44;;;;;;;1.60;1.50;;;;;;;14.79;36.22;95203.88;5091632;28;20449;-68
2021/04/21 11:42:34;;;;;;;2.47;1.70;;;;;;;15.82;35.37;95200.94;5089812;28;20477;-67
2021/04/21 11:45:24;;;;;;;3.37;1.70;;;;;;;16.64;32.67;95192.53;5091634;28;20456;-68
2021/04/21 11:47:54;;;;;;;1.83;1.53;;;;;;;16.64;30.54;95197.84;5091705;28;20950;-68
2021/04/21 11:50:22;;;;;;;3.77;1.83;;;;;;;17.51;32.32;95195.50;5091856;28;20477;-69
2021/04/21 11:53:07;;;;;;;2.13;1.50;;;;;;;17.82;30.90;95185.94;5089733;28;20453;-67
2021/04/21 11:58:32;;;;;;;3.40;1.80;;;;;;;18.49;29.50;95176.41;5091244;28;20437;-68
2021/04/21 12:01:04;;;;;;;5.50;2.67;;;;;;;19.02;28.49;95182.66;5091411;28;20542;-66
2021/04/21 12:03:37;;;;;;;10.27;2.70;;;;;;;19.34;30.45;95173.72;5090410;28;20421;-70
2021/04/21 12:06:12;;;;;;;2.30;2.10;;;;;;;19.54;27.71;95178.53;5091054;28;20538;-67